Sibu, Malaysia
Current Conditions -  °F | °C
As of 7:00 AM on Friday 28 Nov 2014 (Local Time) from WBGS Reporting Station
Broken Clouds Broken Clouds  
Wind Chill: 75°   Ceiling: 15000
Heat Index: 75°   Visibility: 6mi
Dew Point: 73°   Wind: 5mph
Humidity: 94%   Direction: 230°SW
Pressure: 29.8"   Gusts: NA
Location:  2.3°N, 111.83°E
Report Text: WBGS 272300Z 23004KT 9999 SCT018 BKN150 24/23 Q1009
Loading
Personal Weather Stations






























Interactive Weather Map New forecast layout! Learn more

10-Day Weather Forecast

Advertisements
Track Severe Weather on mobile